Middle River (Iowa), Indianola (05486490)

StateIowaLatestUnknown (345 cfs)
RiverMiddle RiverRatingObservedEstimated
Updated2026-05-05 6:15 (1 hour ago)Flood - The river is flooding. Obstacles can be treacherous or deadly. The river should be avoided at this stage for casual trips and definitely for the inexperienced. Trips should be attempted only with protective gear and equipment.Flood(none)(none)
Discharge345 cfs (median: 243 cfs)High - The river is high and potentially dangerous, especially for the young and / or inexperienced. Normal stream obstacles are sometimes difficult to navigate. Extended distances can be attempted, but canoe travel may not be advisable.High(none)(none)
Height8.37 feetGood - Conditions are ideal for a canoe or kayak. Boats typically will drag on fewer than one-quarter of riffles, if at all, and portages are unnecessary or rare. Normal float lengths can be attempted without a problem.Good(none)(none)
TrendSteady (falling over 24 hours)Low - River is low but can still be floated. Some riffles are okay but most come with significant dragging and might need a portage. Float lengths should be reduced to accommodate low flow, dragging, and portages.Low(none)(none)
USGSExternal icon USGS Site (External icon Duck Duck Go Maps)Poor - River is too low to float comfortably. Most or all riffles will drag or must be portaged and some obstacles (such as slick shelf rock) cause undue problems. Avoid the river at this stage for casual paddling trips.Poor(none)(none)

Trending Data

Plot Image

Trips for Middle River (Iowa), Indianola (05486490)

DateStartEndDistanceConditionDischargeHeightFishingDetails
Click for details2021-11-20 Pammel State Park Pammel State Park Total trip distance: 3.3 miles3.3 Low 75 7.35 None NoneNone Turner, SkipTurner, Skip Solo up and back, no access at Harmon Avenue. Indianola gauge 88.1 ft3/min, 7.35 ft.Solo up and back, no access at Harmon Avenue. Indianola gauge 88.1 ft3/min, 7.35 ft. USGS Gauge Data:
Indianola (05486490)
Discharge: 75
Height: 7.35
<b>USGS Gauge Data:</b></br />Indianola (05486490)<br />Discharge: 75<br />Height: 7.35
Source: TurnerSource: Turner

A total of 1 rows are displayed.

Trip Summary for Middle River (Iowa), Indianola (05486490)

Miles3.3
Trips1
People1
Dates1
Years1
Months1
Rows1
Sources1

Condition Descriptions

Fishing Conditions

Fish Species

Notes

Classic Trip List

The classic River Trips application is still available for use. It is updated with the new system using a data retrofit. It is no longer maintained. The original River Trips application is no longer updated (as of 1 Dec 2016) but can be checked for errors or for the condition of the data before it was converted to the new system.

Gauge Data Table

ObservationHeightDischargeMaximum
Discharge
Minimum
Discharge
Mean
Discharge
P05P10P20P25P50
(Median)
P75P80P90P95
2026-05-05 06:15 8.37 345 2950 (2003) 5 (1956) 450 24 41 81 107 243 654 780 1040 1280
2026-05-05 05:15 8.37 345 2950 (2003) 5 (1956) 450 24 41 81 107 243 654 780 1040 1280
2026-05-05 04:15 8.37 345 2950 (2003) 5 (1956) 450 24 41 81 107 243 654 780 1040 1280
2026-05-05 03:15 8.38 348 2950 (2003) 5 (1956) 450 24 41 81 107 243 654 780 1040 1280
2026-05-05 02:15 8.38 348 2950 (2003) 5 (1956) 450 24 41 81 107 243 654 780 1040 1280
2026-05-05 01:15 8.39 350 2950 (2003) 5 (1956) 450 24 41 81 107 243 654 780 1040 1280
2026-05-05 00:15 8.39 350 2950 (2003) 5 (1956) 450 24 41 81 107 243 654 780 1040 1280
2026-05-04 23:15 8.39 350 2950 (2003) 5 (1956) 450 24 41 81 107 243 654 780 1040 1280
2026-05-04 22:15 8.40 353 2520 (1944) 5 (1956) 481 24 36 86 101 246 592 789 1190 2050
2026-05-04 21:15 8.41 355 2520 (1944) 5 (1956) 481 24 36 86 101 246 592 789 1190 2050
2026-05-04 20:15 8.42 358 2520 (1944) 5 (1956) 481 24 36 86 101 246 592 789 1190 2050
2026-05-04 19:15 8.42 358 2520 (1944) 5 (1956) 481 24 36 86 101 246 592 789 1190 2050
2026-05-04 18:15 8.41 355 2520 (1944) 5 (1956) 481 24 36 86 101 246 592 789 1190 2050
2026-05-04 17:15 8.41 355 2520 (1944) 5 (1956) 481 24 36 86 101 246 592 789 1190 2050
2026-05-04 16:15 8.42 358 2520 (1944) 5 (1956) 481 24 36 86 101 246 592 789 1190 2050
2026-05-04 15:15 8.42 358 2520 (1944) 5 (1956) 481 24 36 86 101 246 592 789 1190 2050
2026-05-04 14:15 8.42 358 2520 (1944) 5 (1956) 481 24 36 86 101 246 592 789 1190 2050
2026-05-04 13:15 8.43 360 2520 (1944) 5 (1956) 481 24 36 86 101 246 592 789 1190 2050
2026-05-04 12:15 8.43 360 2520 (1944) 5 (1956) 481 24 36 86 101 246 592 789 1190 2050
2026-05-04 11:15 8.44 363 2520 (1944) 5 (1956) 481 24 36 86 101 246 592 789 1190 2050
2026-05-04 10:15 8.44 363 2520 (1944) 5 (1956) 481 24 36 86 101 246 592 789 1190 2050
2026-05-04 09:15 8.44 363 2520 (1944) 5 (1956) 481 24 36 86 101 246 592 789 1190 2050
2026-05-04 08:15 8.45 366 2520 (1944) 5 (1956) 481 24 36 86 101 246 592 789 1190 2050
2026-05-04 07:15 8.46 368 2520 (1944) 5 (1956) 481 24 36 86 101 246 592 789 1190 2050
2026-05-04 06:15 8.46 368 2520 (1944) 5 (1956) 481 24 36 86 101 246 592 789 1190 2050
2026-05-04 05:15 8.46 368 2520 (1944) 5 (1956) 481 24 36 86 101 246 592 789 1190 2050
2026-05-04 04:15 8.47 371 2520 (1944) 5 (1956) 481 24 36 86 101 246 592 789 1190 2050
2026-05-04 03:15 8.47 371 2520 (1944) 5 (1956) 481 24 36 86 101 246 592 789 1190 2050
2026-05-04 02:15 8.48 373 2520 (1944) 5 (1956) 481 24 36 86 101 246 592 789 1190 2050
2026-05-04 01:15 8.48 373 2520 (1944) 5 (1956) 481 24 36 86 101 246 592 789 1190 2050
2026-05-04 00:15 8.48 373 2520 (1944) 5 (1956) 481 24 36 86 101 246 592 789 1190 2050
2026-05-03 23:15 8.49 376 2520 (1944) 5 (1956) 481 24 36 86 101 246 592 789 1190 2050
2026-05-03 22:15 8.49 376 3990 (1944) 6 (1956) 522 24 39 96 112 231 584 768 1570 1880
2026-05-03 21:15 8.49 376 3990 (1944) 6 (1956) 522 24 39 96 112 231 584 768 1570 1880
2026-05-03 20:15 8.50 379 3990 (1944) 6 (1956) 522 24 39 96 112 231 584 768 1570 1880
2026-05-03 19:15 8.50 379 3990 (1944) 6 (1956) 522 24 39 96 112 231 584 768 1570 1880
2026-05-03 18:15 8.50 379 3990 (1944) 6 (1956) 522 24 39 96 112 231 584 768 1570 1880
2026-05-03 17:15 8.50 379 3990 (1944) 6 (1956) 522 24 39 96 112 231 584 768 1570 1880
2026-05-03 16:15 8.51 381 3990 (1944) 6 (1956) 522 24 39 96 112 231 584 768 1570 1880
2026-05-03 15:15 8.52 384 3990 (1944) 6 (1956) 522 24 39 96 112 231 584 768 1570 1880
2026-05-03 14:15 8.52 384 3990 (1944) 6 (1956) 522 24 39 96 112 231 584 768 1570 1880
2026-05-03 13:15 8.53 386 3990 (1944) 6 (1956) 522 24 39 96 112 231 584 768 1570 1880
2026-05-03 12:15 8.53 386 3990 (1944) 6 (1956) 522 24 39 96 112 231 584 768 1570 1880
2026-05-03 11:15 8.52 384 3990 (1944) 6 (1956) 522 24 39 96 112 231 584 768 1570 1880
2026-05-03 10:15 8.54 389 3990 (1944) 6 (1956) 522 24 39 96 112 231 584 768 1570 1880
2026-05-03 09:15 8.55 392 3990 (1944) 6 (1956) 522 24 39 96 112 231 584 768 1570 1880
2026-05-03 08:15 8.54 389 3990 (1944) 6 (1956) 522 24 39 96 112 231 584 768 1570 1880
2026-05-03 07:15 8.55 392 3990 (1944) 6 (1956) 522 24 39 96 112 231 584 768 1570 1880
2026-05-03 06:15 8.56 394 3990 (1944) 6 (1956) 522 24 39 96 112 231 584 768 1570 1880
2026-05-03 05:15 8.55 392 3990 (1944) 6 (1956) 522 24 39 96 112 231 584 768 1570 1880
2026-05-03 04:15 8.56 394 3990 (1944) 6 (1956) 522 24 39 96 112 231 584 768 1570 1880
2026-05-03 03:15 8.57 397 3990 (1944) 6 (1956) 522 24 39 96 112 231 584 768 1570 1880
2026-05-03 02:15 8.57 397 3990 (1944) 6 (1956) 522 24 39 96 112 231 584 768 1570 1880
2026-05-03 01:15 8.58 400 3990 (1944) 6 (1956) 522 24 39 96 112 231 584 768 1570 1880
2026-05-03 00:15 8.59 403 3990 (1944) 6 (1956) 522 24 39 96 112 231 584 768 1570 1880
2026-05-02 23:15 8.60 405 3990 (1944) 6 (1956) 522 24 39 96 112 231 584 768 1570 1880
2026-05-02 22:15 8.59 403 6290 (1951) 7 (1956) 524 27 40 96 117 237 608 691 1070 2190
2026-05-02 21:15 8.61 408 6290 (1951) 7 (1956) 524 27 40 96 117 237 608 691 1070 2190
2026-05-02 20:15 8.60 405 6290 (1951) 7 (1956) 524 27 40 96 117 237 608 691 1070 2190
2026-05-02 19:15 8.61 408 6290 (1951) 7 (1956) 524 27 40 96 117 237 608 691 1070 2190
2026-05-02 18:15 8.60 405 6290 (1951) 7 (1956) 524 27 40 96 117 237 608 691 1070 2190
2026-05-02 17:15 8.61 408 6290 (1951) 7 (1956) 524 27 40 96 117 237 608 691 1070 2190
2026-05-02 16:15 8.62 411 6290 (1951) 7 (1956) 524 27 40 96 117 237 608 691 1070 2190
2026-05-02 15:15 8.63 413 6290 (1951) 7 (1956) 524 27 40 96 117 237 608 691 1070 2190
2026-05-02 14:15 8.63 413 6290 (1951) 7 (1956) 524 27 40 96 117 237 608 691 1070 2190
2026-05-02 13:15 8.62 411 6290 (1951) 7 (1956) 524 27 40 96 117 237 608 691 1070 2190
2026-05-02 12:15 8.65 419 6290 (1951) 7 (1956) 524 27 40 96 117 237 608 691 1070 2190
2026-05-02 11:15 8.65 419 6290 (1951) 7 (1956) 524 27 40 96 117 237 608 691 1070 2190
2026-05-02 10:15 8.65 419 6290 (1951) 7 (1956) 524 27 40 96 117 237 608 691 1070 2190
2026-05-02 09:15 8.66 422 6290 (1951) 7 (1956) 524 27 40 96 117 237 608 691 1070 2190
2026-05-02 08:15 8.66 422 6290 (1951) 7 (1956) 524 27 40 96 117 237 608 691 1070 2190
2026-05-02 07:15 8.68 427 6290 (1951) 7 (1956) 524 27 40 96 117 237 608 691 1070 2190
2026-05-02 06:15 8.68 427 6290 (1951) 7 (1956) 524 27 40 96 117 237 608 691 1070 2190
2026-05-02 05:15 8.69 430 6290 (1951) 7 (1956) 524 27 40 96 117 237 608 691 1070 2190
2026-05-02 04:15 8.68 427 6290 (1951) 7 (1956) 524 27 40 96 117 237 608 691 1070 2190
2026-05-02 03:15 8.69 430 6290 (1951) 7 (1956) 524 27 40 96 117 237 608 691 1070 2190
2026-05-02 02:15 8.70 433 6290 (1951) 7 (1956) 524 27 40 96 117 237 608 691 1070 2190
2026-05-02 01:15 8.72 438 6290 (1951) 7 (1956) 524 27 40 96 117 237 608 691 1070 2190
2026-05-02 00:15 8.71 436 6290 (1951) 7 (1956) 524 27 40 96 117 237 608 691 1070 2190
2026-05-01 23:15 8.73 441 6290 (1951) 7 (1956) 524 27 40 96 117 237 608 691 1070 2190
2026-05-01 22:15 8.74 444 6440 (1951) 5 (1956) 589 27 38 102 113 245 650 784 1380 3420
2026-05-01 21:15 8.75 447 6440 (1951) 5 (1956) 589 27 38 102 113 245 650 784 1380 3420
2026-05-01 20:15 8.75 447 6440 (1951) 5 (1956) 589 27 38 102 113 245 650 784 1380 3420
2026-05-01 19:15 8.76 450 6440 (1951) 5 (1956) 589 27 38 102 113 245 650 784 1380 3420
2026-05-01 18:15 8.76 450 6440 (1951) 5 (1956) 589 27 38 102 113 245 650 784 1380 3420
2026-05-01 17:15 8.78 456 6440 (1951) 5 (1956) 589 27 38 102 113 245 650 784 1380 3420
2026-05-01 16:15 8.78 456 6440 (1951) 5 (1956) 589 27 38 102 113 245 650 784 1380 3420
2026-05-01 15:15 8.77 453 6440 (1951) 5 (1956) 589 27 38 102 113 245 650 784 1380 3420
2026-05-01 14:15 8.79 458 6440 (1951) 5 (1956) 589 27 38 102 113 245 650 784 1380 3420
2026-05-01 13:15 8.79 458 6440 (1951) 5 (1956) 589 27 38 102 113 245 650 784 1380 3420
2026-05-01 12:15 8.81 464 6440 (1951) 5 (1956) 589 27 38 102 113 245 650 784 1380 3420
2026-05-01 11:15 8.82 467 6440 (1951) 5 (1956) 589 27 38 102 113 245 650 784 1380 3420
2026-05-01 10:15 8.82 467 6440 (1951) 5 (1956) 589 27 38 102 113 245 650 784 1380 3420
2026-05-01 09:15 8.82 467 6440 (1951) 5 (1956) 589 27 38 102 113 245 650 784 1380 3420
2026-05-01 08:15 8.84 473 6440 (1951) 5 (1956) 589 27 38 102 113 245 650 784 1380 3420
2026-05-01 07:15 8.83 470 6440 (1951) 5 (1956) 589 27 38 102 113 245 650 784 1380 3420
2026-05-01 06:15 8.84 473 6440 (1951) 5 (1956) 589 27 38 102 113 245 650 784 1380 3420
2026-05-01 05:15 8.85 476 6440 (1951) 5 (1956) 589 27 38 102 113 245 650 784 1380 3420
2026-05-01 04:15 8.86 479 6440 (1951) 5 (1956) 589 27 38 102 113 245 650 784 1380 3420
2026-05-01 03:15 8.87 482 6440 (1951) 5 (1956) 589 27 38 102 113 245 650 784 1380 3420
2026-05-01 02:15 8.88 485 6440 (1951) 5 (1956) 589 27 38 102 113 245 650 784 1380 3420
2026-05-01 01:15 8.89 488 6440 (1951) 5 (1956) 589 27 38 102 113 245 650 784 1380 3420
2026-05-01 00:15 8.90 491 6440 (1951) 5 (1956) 589 27 38 102 113 245 650 784 1380 3420
2026-04-30 23:15 8.91 494 6440 (1951) 5 (1956) 589 27 38 102 113 245 650 784 1380 3420
2026-04-30 22:15 8.91 494 8300 (1984) 6 (1956) 553 28 40 100 113 245 611 659 1280 2060
2026-04-30 21:15 8.93 500 8300 (1984) 6 (1956) 553 28 40 100 113 245 611 659 1280 2060
2026-04-30 20:15 8.93 500 8300 (1984) 6 (1956) 553 28 40 100 113 245 611 659 1280 2060
2026-04-30 19:15 8.94 503 8300 (1984) 6 (1956) 553 28 40 100 113 245 611 659 1280 2060
2026-04-30 18:15 8.96 509 8300 (1984) 6 (1956) 553 28 40 100 113 245 611 659 1280 2060
2026-04-30 17:15 8.97 512 8300 (1984) 6 (1956) 553 28 40 100 113 245 611 659 1280 2060
2026-04-30 16:15 8.98 515 8300 (1984) 6 (1956) 553 28 40 100 113 245 611 659 1280 2060
2026-04-30 15:15 8.99 518 8300 (1984) 6 (1956) 553 28 40 100 113 245 611 659 1280 2060
2026-04-30 14:15 9.00 521 8300 (1984) 6 (1956) 553 28 40 100 113 245 611 659 1280 2060
2026-04-30 13:15 9.00 521 8300 (1984) 6 (1956) 553 28 40 100 113 245 611 659 1280 2060
2026-04-30 12:15 9.02 527 8300 (1984) 6 (1956) 553 28 40 100 113 245 611 659 1280 2060
2026-04-30 11:15 9.03 531 8300 (1984) 6 (1956) 553 28 40 100 113 245 611 659 1280 2060
2026-04-30 10:15 9.04 534 8300 (1984) 6 (1956) 553 28 40 100 113 245 611 659 1280 2060
2026-04-30 09:15 9.04 534 8300 (1984) 6 (1956) 553 28 40 100 113 245 611 659 1280 2060
2026-04-30 08:15 9.05 537 8300 (1984) 6 (1956) 553 28 40 100 113 245 611 659 1280 2060
2026-04-30 07:15 9.06 540 8300 (1984) 6 (1956) 553 28 40 100 113 245 611 659 1280 2060
2026-04-30 06:15 9.07 543 8300 (1984) 6 (1956) 553 28 40 100 113 245 611 659 1280 2060
2026-04-30 05:15 9.08 546 8300 (1984) 6 (1956) 553 28 40 100 113 245 611 659 1280 2060
2026-04-30 04:15 9.09 549 8300 (1984) 6 (1956) 553 28 40 100 113 245 611 659 1280 2060
2026-04-30 03:15 9.12 559 8300 (1984) 6 (1956) 553 28 40 100 113 245 611 659 1280 2060
2026-04-30 02:15 9.12 559 8300 (1984) 6 (1956) 553 28 40 100 113 245 611 659 1280 2060
2026-04-30 01:15 9.15 569 8300 (1984) 6 (1956) 553 28 40 100 113 245 611 659 1280 2060
2026-04-30 00:15 9.16 572 8300 (1984) 6 (1956) 553 28 40 100 113 245 611 659 1280 2060
2026-04-29 23:15 9.18 578 8300 (1984) 6 (1956) 553 28 40 100 113 245 611 659 1280 2060
2026-04-29 22:15 9.20 585 8790 (1974) 8 (1956) 520 25 38 83 120 263 419 637 1200 1990
2026-04-29 21:15 9.21 588 8790 (1974) 8 (1956) 520 25 38 83 120 263 419 637 1200 1990
2026-04-29 20:15 9.24 598 8790 (1974) 8 (1956) 520 25 38 83 120 263 419 637 1200 1990
2026-04-29 19:15 9.25 602 8790 (1974) 8 (1956) 520 25 38 83 120 263 419 637 1200 1990
2026-04-29 18:15 9.26 605 8790 (1974) 8 (1956) 520 25 38 83 120 263 419 637 1200 1990
2026-04-29 17:15 9.28 612 8790 (1974) 8 (1956) 520 25 38 83 120 263 419 637 1200 1990
2026-04-29 16:15 9.30 618 8790 (1974) 8 (1956) 520 25 38 83 120 263 419 637 1200 1990
2026-04-29 15:15 9.31 622 8790 (1974) 8 (1956) 520 25 38 83 120 263 419 637 1200 1990
2026-04-29 14:15 9.35 634 8790 (1974) 8 (1956) 520 25 38 83 120 263 419 637 1200 1990
2026-04-29 13:15 9.36 637 8790 (1974) 8 (1956) 520 25 38 83 120 263 419 637 1200 1990
2026-04-29 12:15 9.39 646 8790 (1974) 8 (1956) 520 25 38 83 120 263 419 637 1200 1990
2026-04-29 11:15 9.41 651 8790 (1974) 8 (1956) 520 25 38 83 120 263 419 637 1200 1990
2026-04-29 10:15 9.43 657 8790 (1974) 8 (1956) 520 25 38 83 120 263 419 637 1200 1990
2026-04-29 09:15 9.45 663 8790 (1974) 8 (1956) 520 25 38 83 120 263 419 637 1200 1990
2026-04-29 08:15 9.48 672 8790 (1974) 8 (1956) 520 25 38 83 120 263 419 637 1200 1990
2026-04-29 07:15 9.50 677 8790 (1974) 8 (1956) 520 25 38 83 120 263 419 637 1200 1990
2026-04-29 06:15 9.54 689 8790 (1974) 8 (1956) 520 25 38 83 120 263 419 637 1200 1990
2026-04-29 05:15 9.58 701 8790 (1974) 8 (1956) 520 25 38 83 120 263 419 637 1200 1990
2026-04-29 04:15 9.60 707 8790 (1974) 8 (1956) 520 25 38 83 120 263 419 637 1200 1990
2026-04-29 03:15 9.63 716 8790 (1974) 8 (1956) 520 25 38 83 120 263 419 637 1200 1990
2026-04-29 02:15 9.69 734 8790 (1974) 8 (1956) 520 25 38 83 120 263 419 637 1200 1990
2026-04-29 01:15 9.73 746 8790 (1974) 8 (1956) 520 25 38 83 120 263 419 637 1200 1990
2026-04-29 00:15 9.78 762 8790 (1974) 8 (1956) 520 25 38 83 120 263 419 637 1200 1990
2026-04-28 23:15 9.83 777 8790 (1974) 8 (1956) 520 25 38 83 120 263 419 637 1200 1990
2026-04-28 22:15 9.89 796 7930 (2009) 6 (1956) 515 32 39 85 109 285 546 665 1200 1960
2026-04-28 21:15 9.93 808 7930 (2009) 6 (1956) 515 32 39 85 109 285 546 665 1200 1960
2026-04-28 20:15 9.97 821 7930 (2009) 6 (1956) 515 32 39 85 109 285 546 665 1200 1960
2026-04-28 19:15 10.02 837 7930 (2009) 6 (1956) 515 32 39 85 109 285 546 665 1200 1960
2026-04-28 18:15 10.07 853 7930 (2009) 6 (1956) 515 32 39 85 109 285 546 665 1200 1960
2026-04-28 17:15 10.15 879 7930 (2009) 6 (1956) 515 32 39 85 109 285 546 665 1200 1960
2026-04-28 16:15 10.20 895 7930 (2009) 6 (1956) 515 32 39 85 109 285 546 665 1200 1960
2026-04-28 15:15 10.25 912 7930 (2009) 6 (1956) 515 32 39 85 109 285 546 665 1200 1960
2026-04-28 14:15 10.29 925 7930 (2009) 6 (1956) 515 32 39 85 109 285 546 665 1200 1960
2026-04-28 13:15 10.31 932 7930 (2009) 6 (1956) 515 32 39 85 109 285 546 665 1200 1960
2026-04-28 12:15 10.36 949 7930 (2009) 6 (1956) 515 32 39 85 109 285 546 665 1200 1960
2026-04-28 11:15 10.34 942 7930 (2009) 6 (1956) 515 32 39 85 109 285 546 665 1200 1960
2026-04-28 10:15 10.35 945 7930 (2009) 6 (1956) 515 32 39 85 109 285 546 665 1200 1960
2026-04-28 09:15 10.34 942 7930 (2009) 6 (1956) 515 32 39 85 109 285 546 665 1200 1960
2026-04-28 08:15 10.30 929 7930 (2009) 6 (1956) 515 32 39 85 109 285 546 665 1200 1960
2026-04-28 07:15 10.28 922 7930 (2009) 6 (1956) 515 32 39 85 109 285 546 665 1200 1960
2026-04-28 06:15 10.27 919 7930 (2009) 6 (1956) 515 32 39 85 109 285 546 665 1200 1960
2026-04-28 05:15 10.23 905 7930 (2009) 6 (1956) 515 32 39 85 109 285 546 665 1200 1960
2026-04-28 04:15 10.21 899 7930 (2009) 6 (1956) 515 32 39 85 109 285 546 665 1200 1960
2026-04-28 03:15 10.16 882 7930 (2009) 6 (1956) 515 32 39 85 109 285 546 665 1200 1960
2026-04-28 02:15 10.07 853 7930 (2009) 6 (1956) 515 32 39 85 109 285 546 665 1200 1960
2026-04-28 01:15 9.95 815 7930 (2009) 6 (1956) 515 32 39 85 109 285 546 665 1200 1960
2026-04-28 00:15 9.80 768 7930 (2009) 6 (1956) 515 32 39 85 109 285 546 665 1200 1960

A total of 175 rows are displayed for years 1941 through 2025.